createdAt,value
2022-10-06T01:18:33.932Z,98486.00
2022-10-06T01:21:58.558Z,98485.20
2022-10-06T01:24:43.654Z,98485.00
2022-10-06T01:27:42.129Z,98493.80
2022-10-06T01:31:01.723Z,98493.40
2022-10-06T01:34:37.829Z,98500.40
2022-10-06T01:37:59.939Z,98502.00
2022-10-06T01:41:28.040Z,98504.20
2022-10-06T01:44:48.030Z,98502.60
2022-10-06T01:48:00.137Z,98505.00
2022-10-06T01:51:17.668Z,98502.00
2022-10-06T01:55:07.436Z,98506.80
2022-10-06T01:58:22.321Z,98511.40
2022-10-06T02:02:12.129Z,98510.80
2022-10-06T02:05:22.719Z,98503.00
2022-10-06T02:08:41.679Z,98497.60
2022-10-06T02:12:02.287Z,98510.60
2022-10-06T02:15:33.492Z,98504.80
2022-10-06T02:19:02.805Z,98508.20
2022-10-06T02:22:35.998Z,98509.00
2022-10-06T02:25:14.513Z,98506.80
2022-10-06T02:28:08.269Z,98509.00
2022-10-06T02:31:17.395Z,98508.20
2022-10-06T02:34:40.849Z,98513.20
2022-10-06T02:38:13.578Z,98513.40
2022-10-06T02:41:20.970Z,98518.00
2022-10-06T02:44:27.339Z,98520.80
2022-10-06T02:48:03.300Z,98522.00
2022-10-06T03:16:12.072Z,98535.60
2022-10-06T03:20:02.598Z,98539.20
2022-10-06T03:23:21.949Z,98538.80
2022-10-06T03:27:19.242Z,98547.80
2022-10-06T03:30:44.759Z,98551.00
2022-10-06T04:06:11.795Z,98587.00
2022-10-06T04:17:48.149Z,98595.20
2022-10-06T05:43:18.805Z,98691.60
2022-10-06T05:49:55.595Z,98700.00
2022-10-06T05:52:34.844Z,98703.20
2022-10-06T05:56:07.019Z,98699.00
2022-10-06T05:58:54.744Z,98706.80
2022-10-06T06:02:16.181Z,98707.20
2022-10-06T06:05:18.542Z,98711.00
2022-10-06T06:08:13.444Z,98721.00
2022-10-06T06:11:53.423Z,98725.60
2022-10-06T06:15:31.863Z,98734.20
2022-10-06T06:18:28.000Z,98737.40
2022-10-06T06:21:23.692Z,98739.80
2022-10-06T06:24:37.205Z,98743.20
2022-10-06T06:28:07.210Z,98752.20
2022-10-06T06:31:20.301Z,98759.00
2022-10-06T06:34:31.001Z,98763.00
2022-10-06T06:37:47.264Z,98765.40
2022-10-06T06:40:58.096Z,98769.60
2022-10-06T06:43:45.626Z,98767.60
2022-10-06T06:47:00.919Z,98771.00
2022-10-06T06:50:24.168Z,98773.60
2022-10-06T06:53:44.304Z,98771.00
2022-10-06T06:57:12.746Z,98778.80
2022-10-06T07:00:25.083Z,98788.40
2022-10-06T07:04:34.164Z,98790.80
2022-10-06T08:40:03.505Z,98860.80
2022-10-06T08:42:48.716Z,98854.60
2022-10-06T08:45:47.177Z,98855.60
2022-10-06T08:48:44.003Z,98855.00
2022-10-06T08:51:49.245Z,98858.40
2022-10-06T08:54:54.098Z,98859.00
2022-10-06T08:58:35.120Z,98856.80
2022-10-06T09:02:30.412Z,98852.00
2022-10-06T09:05:35.024Z,98852.00
2022-10-06T09:09:22.819Z,98851.20
2022-10-06T09:12:42.249Z,98857.00
2022-10-06T10:09:21.736Z,98875.40
2022-10-06T10:15:59.862Z,98872.00
2022-10-06T10:19:11.329Z,98868.80
2022-10-06T10:22:07.765Z,98876.80
2022-10-06T10:25:38.815Z,98873.80
2022-10-06T10:28:46.955Z,98871.60
2022-10-06T10:32:12.007Z,98872.60
2022-10-06T10:36:00.383Z,98870.60
2022-10-06T10:39:15.792Z,98871.60
2022-10-06T10:42:55.634Z,98868.80
2022-10-06T10:46:45.058Z,98867.60
2022-10-06T10:50:13.108Z,98867.20
2022-10-06T10:54:06.546Z,98865.00
2022-10-06T10:57:46.711Z,98864.60
2022-10-06T11:01:29.326Z,98863.40
2022-10-06T11:08:06.720Z,98871.80
2022-10-06T11:11:57.917Z,98870.40
2022-10-06T11:15:19.759Z,98872.00
2022-10-06T11:48:35.986Z,98849.60
2022-10-06T11:51:42.973Z,98850.40
2022-10-06T11:55:00.671Z,98846.60
2022-10-06T11:58:41.490Z,98847.00
2022-10-06T12:01:56.604Z,98847.20
2022-10-06T12:05:55.254Z,98846.60
2022-10-06T12:09:46.279Z,98842.20
2022-10-06T12:14:44.538Z,98837.60
2022-10-06T12:17:12.875Z,98832.40
2022-10-06T12:21:12.246Z,98833.40
2022-10-06T12:24:38.073Z,98835.80
2022-10-06T12:28:11.416Z,98839.20
2022-10-06T12:31:55.783Z,98842.20
2022-10-06T12:35:30.118Z,98834.60
2022-10-06T12:38:54.650Z,98830.00
2022-10-06T12:45:43.537Z,98821.80
2022-10-06T12:53:06.603Z,98823.20
2022-10-06T12:56:20.546Z,98817.20
2022-10-06T12:59:34.108Z,98818.20
2022-10-06T13:03:09.353Z,98813.20
2022-10-06T13:06:09.593Z,98818.00
2022-10-06T13:09:23.422Z,98812.80
2022-10-06T13:12:52.842Z,98814.20
2022-10-06T13:16:03.005Z,98809.20
2022-10-06T13:30:39.013Z,98812.60
2022-10-06T13:33:49.570Z,98812.20
2022-10-06T13:40:21.832Z,98806.40
2022-10-06T13:47:11.180Z,98801.00
2022-10-06T13:50:24.805Z,98802.60
2022-10-06T13:53:49.430Z,98807.80
2022-10-06T14:11:43.449Z,98804.00
2022-10-06T14:14:28.974Z,98802.80
2022-10-06T14:17:09.362Z,98801.80
2022-10-06T14:20:17.414Z,98799.80
2022-10-06T15:07:44.332Z,98790.80
2022-10-06T15:10:11.222Z,98790.00
2022-10-06T15:12:38.063Z,98793.00
2022-10-06T15:15:07.683Z,98791.40
2022-10-06T15:17:34.821Z,98789.80
2022-10-06T15:20:01.632Z,98789.20
2022-10-06T15:22:29.324Z,98785.80
2022-10-06T15:24:56.181Z,98787.60
2022-10-06T15:30:13.712Z,98793.40
2022-10-06T15:32:40.859Z,98794.00
2022-10-06T15:35:08.419Z,98792.40
2022-10-06T15:37:35.096Z,98799.60
2022-10-06T15:40:03.435Z,98796.60
2022-10-06T15:42:30.190Z,98799.80
2022-10-06T15:44:57.121Z,98798.40
2022-10-06T15:47:24.904Z,98802.80
2022-10-06T15:49:51.933Z,98805.80
2022-10-06T15:52:19.080Z,98809.00
2022-10-06T15:54:50.037Z,98806.80
2022-10-06T15:57:20.940Z,98801.40
2022-10-06T15:59:48.789Z,98805.00
2022-10-06T16:02:19.638Z,98802.20
2022-10-06T16:04:55.488Z,98804.60
2022-10-06T16:07:23.430Z,98802.40
2022-10-06T16:09:51.483Z,98800.80
2022-10-06T16:12:22.682Z,98802.40
2022-10-06T16:14:50.115Z,98806.40
2022-10-06T16:17:18.792Z,98810.40
2022-10-06T16:19:50.249Z,98812.80
2022-10-06T16:22:20.109Z,98820.00
2022-10-06T16:24:48.323Z,98821.00
2022-10-06T16:27:16.613Z,98817.40
2022-10-06T16:29:44.233Z,98823.80
2022-10-06T16:32:11.953Z,98826.80
2022-10-06T16:34:39.437Z,98828.80
2022-10-06T16:37:06.685Z,98827.00
2022-10-06T16:39:33.528Z,98824.20
2022-10-06T16:42:00.324Z,98824.60
2022-10-06T16:44:27.209Z,98828.00
2022-10-06T16:46:54.160Z,98826.20
2022-10-06T16:49:21.239Z,98829.60
2022-10-06T16:51:48.350Z,98831.80
2022-10-06T16:54:21.035Z,98835.20
2022-10-06T16:56:54.852Z,98835.60
2022-10-06T16:59:26.546Z,98836.00
2022-10-06T17:01:53.421Z,98838.80
2022-10-06T17:04:23.885Z,98839.20
2022-10-06T17:06:54.202Z,98837.20
2022-10-06T17:09:27.563Z,98840.80
2022-10-06T17:12:01.680Z,98841.60
2022-10-06T17:14:31.922Z,98842.20
2022-10-06T17:16:59.577Z,98845.40
2022-10-06T17:19:29.403Z,98846.80
2022-10-06T17:21:59.556Z,98846.20
2022-10-06T17:24:29.677Z,98850.00
2022-10-06T17:26:58.378Z,98851.00
2022-10-06T17:29:26.693Z,98854.60
2022-10-06T17:31:58.968Z,98856.40
2022-10-06T17:34:32.325Z,98855.80
2022-10-06T17:37:02.322Z,98858.60
2022-10-06T17:39:29.433Z,98854.80
2022-10-06T17:41:56.984Z,98856.00
2022-10-06T17:44:27.431Z,98852.40
2022-10-06T17:47:00.309Z,98852.80
2022-10-06T17:49:30.001Z,98853.80
2022-10-06T17:51:57.114Z,98855.00
2022-10-06T17:54:27.099Z,98856.00
2022-10-06T17:56:57.902Z,98853.40
2022-10-06T17:59:31.624Z,98855.00
2022-10-06T18:02:02.889Z,98858.40
2022-10-06T18:04:30.824Z,98855.80
2022-10-06T18:06:58.274Z,98855.00
2022-10-06T18:09:25.529Z,98853.80
2022-10-06T18:11:56.665Z,98850.60
2022-10-06T18:14:27.693Z,98850.20
2022-10-06T18:16:59.936Z,98845.40
2022-10-06T18:19:34.189Z,98850.80
2022-10-06T18:22:11.993Z,98850.60
2022-10-06T18:24:40.296Z,98854.40
2022-10-06T18:27:08.374Z,98850.40
2022-10-06T18:29:38.508Z,98852.00
2022-10-06T18:37:41.839Z,98852.20
2022-10-06T18:40:11.255Z,98847.00
2022-10-06T18:42:39.562Z,98847.80
2022-10-06T18:45:27.285Z,98849.80
2022-10-06T18:48:12.786Z,98847.80
2022-10-06T18:50:40.260Z,98846.60
2022-10-06T18:53:07.459Z,98846.80
2022-10-06T18:55:35.236Z,98848.00
2022-10-06T18:58:03.374Z,98845.80
2022-10-06T19:00:31.291Z,98851.60
2022-10-06T19:02:58.073Z,98849.60
2022-10-06T19:05:25.515Z,98851.40
2022-10-06T19:07:54.127Z,98854.40
2022-10-06T19:10:21.869Z,98853.40
2022-10-06T19:12:49.606Z,98855.00
2022-10-06T19:15:20.277Z,98852.80
2022-10-06T19:17:48.991Z,98845.00
2022-10-06T19:20:16.071Z,98842.40
2022-10-06T19:22:43.645Z,98837.00
2022-10-06T19:25:11.389Z,98842.40
2022-10-06T19:27:38.645Z,98847.60
2022-10-06T19:30:06.139Z,98845.00
2022-10-06T19:32:33.145Z,98848.20
2022-10-06T19:35:00.696Z,98851.00
2022-10-06T19:37:30.607Z,98850.20
2022-10-06T19:39:58.348Z,98851.20
2022-10-06T19:42:45.689Z,98851.40
2022-10-06T19:45:13.998Z,98856.20
2022-10-06T19:47:41.423Z,98859.20
2022-10-06T19:50:12.570Z,98864.20
2022-10-06T19:52:42.193Z,98867.80
2022-10-06T19:55:09.647Z,98864.00
2022-10-06T19:57:36.810Z,98863.20
2022-10-06T20:00:06.586Z,98862.40
2022-10-06T20:02:42.845Z,98866.40
2022-10-06T20:05:15.962Z,98860.60
2022-10-06T20:07:45.959Z,98856.20
2022-10-06T20:10:14.515Z,98858.00
2022-10-06T20:12:41.846Z,98857.20
2022-10-06T20:15:10.936Z,98860.60
2022-10-06T20:17:37.951Z,98860.00
2022-10-06T20:20:05.670Z,98863.80
2022-10-06T20:22:32.598Z,98866.00
2022-10-06T20:25:02.080Z,98863.60
2022-10-06T20:27:31.170Z,98860.80
2022-10-06T20:29:58.493Z,98858.00
2022-10-06T20:32:25.376Z,98851.60
2022-10-06T20:34:52.300Z,98854.20
2022-10-06T20:37:19.159Z,98852.40
2022-10-06T20:40:04.612Z,98855.00
2022-10-06T20:42:31.506Z,98854.80
2022-10-06T20:44:58.406Z,98851.40
2022-10-06T20:47:25.351Z,98845.60
2022-10-06T20:49:55.354Z,98843.40
2022-10-06T20:52:25.531Z,98837.40
2022-10-06T20:54:52.443Z,98836.40
2022-10-06T20:57:20.091Z,98836.00
2022-10-06T20:59:47.243Z,98833.80
2022-10-06T21:02:14.114Z,98834.40
2022-10-06T21:04:43.779Z,98831.40
2022-10-06T21:07:11.562Z,98833.60
2022-10-06T21:09:38.713Z,98830.80
2022-10-06T21:12:06.167Z,98830.40
2022-10-06T21:14:34.254Z,98833.80
2022-10-06T21:17:01.800Z,98825.20
2022-10-06T21:19:30.240Z,98825.20
2022-10-06T21:21:57.221Z,98818.00
2022-10-06T21:24:24.498Z,98821.00
2022-10-06T21:26:52.993Z,98819.80
2022-10-06T21:29:20.865Z,98820.00
2022-10-06T21:31:48.297Z,98822.00
2022-10-06T21:34:15.232Z,98817.20
2022-10-06T21:36:43.971Z,98808.80
2022-10-06T21:39:12.826Z,98809.00
2022-10-06T21:41:41.255Z,98807.60
2022-10-06T21:44:11.850Z,98807.00
2022-10-06T21:46:38.820Z,98807.00
2022-10-06T21:49:10.973Z,98804.60
2022-10-06T21:51:38.494Z,98803.60
2022-10-06T21:54:05.958Z,98797.80
2022-10-06T21:56:34.395Z,98798.60
2022-10-06T21:59:02.102Z,98796.00
2022-10-06T22:01:37.037Z,98794.60
2022-10-06T22:04:05.833Z,98795.80
2022-10-06T22:06:37.011Z,98794.80
2022-10-06T22:09:07.451Z,98798.40
2022-10-06T22:11:39.637Z,98796.40
2022-10-06T22:14:13.027Z,98792.60
2022-10-06T22:16:40.852Z,98785.80
2022-10-06T22:19:11.655Z,98784.00
2022-10-06T22:21:45.164Z,98781.20
2022-10-06T22:24:21.153Z,98781.20
2022-10-06T22:26:49.517Z,98774.80
2022-10-06T22:29:19.299Z,98772.40
2022-10-06T22:31:48.041Z,98770.40
2022-10-06T22:34:18.805Z,98768.40
2022-10-06T22:36:46.613Z,98764.40
2022-10-06T22:39:14.088Z,98762.00
2022-10-06T22:41:41.674Z,98762.00
2022-10-06T22:44:08.618Z,98755.80
2022-10-06T22:46:37.495Z,98754.40
2022-10-06T22:49:05.805Z,98749.60
2022-10-06T22:51:34.459Z,98748.20
2022-10-06T22:54:02.260Z,98744.00
2022-10-06T22:56:32.247Z,98743.60
2022-10-06T22:59:00.840Z,98741.20
2022-10-06T23:01:29.755Z,98747.60
2022-10-06T23:03:57.325Z,98741.40
2022-10-06T23:06:24.730Z,98743.00
2022-10-06T23:08:52.381Z,98746.20
2022-10-06T23:11:21.598Z,98745.40
2022-10-06T23:13:50.495Z,98738.60
2022-10-06T23:16:19.721Z,98732.80
2022-10-06T23:18:47.586Z,98730.60
2022-10-06T23:21:24.278Z,98728.00
2022-10-06T23:23:55.888Z,98730.40
2022-10-06T23:26:24.020Z,98727.60
2022-10-06T23:28:56.281Z,98727.00
2022-10-06T23:31:24.724Z,98725.00
2022-10-06T23:33:53.440Z,98721.00
2022-10-06T23:36:20.504Z,98723.60
2022-10-06T23:38:47.867Z,98725.40
2022-10-06T23:41:15.858Z,98725.80
2022-10-06T23:43:42.900Z,98729.00
2022-10-06T23:46:09.991Z,98728.40
2022-10-06T23:48:37.608Z,98726.80
2022-10-06T23:51:11.783Z,98730.80
2022-10-06T23:53:39.829Z,98721.40
2022-10-06T23:56:08.175Z,98723.00
2022-10-06T23:58:35.580Z,98720.60
